Weather observations for the past three days for
Woodward, West Woodward Airport
Imperial (Metric)
Date Time (cdt) Wind (mph) Vis. (mi.) Weather Sky Cond. Temperature (ºF) Relative Humidity Wind Chill (°F) Heat Index (°F) Pressure Precipitation (in)
Air Dwpt 6 hour altimeter (in) sea level (mb) 1 hr 3 hr 6 hr
Max. Min.
07 15:55 SW 8 G 20 10.00 Fair CLR 77.2 36.3 23% 77 29.97 0.0
07 15:35 W 13 G 21 10.00 Fair CLR 76.8 34.2 21% 77 29.98 0.0
07 15:15 SW 16 G 21 10.00 Fair CLR 75.7 35.2 23% 77 29.99 0.0
07 14:55 W 10 G 22 10.00 Fair CLR 75.4 34.9 23% 76 30 0.0
07 14:35 W 8 G 22 10.00 Fair CLR 74.7 35.6 24% 30.01 0.0
07 14:15 SW 10 G 24 10.00 Fair CLR 73.6 36.3 26% 30.02 0.0
07 13:55 W 16 10.00 Fair CLR 72.1 37.4 28% 30.03 0.0
07 13:35 SW 13 G 25 10.00 Fair CLR 71.6 39.9 32% 30.04 0.0
07 13:15 SW 14 G 25 10.00 Fair CLR 69.8 38.8 32% 30.05 0.0
07 12:55 W 14 G 21 10.00 Fair CLR 68.5 40.5 68.5 36.5 36% 30.06 0.0
07 12:35 W 14 G 20 10.00 Fair CLR 66.9 41.2 39% 30.07 0.0
07 12:15 SW 16 G 21 10.00 Fair CLR 64.8 40.5 41% 30.09 0.0
07 11:55 SW 14 G 18 10.00 Fair CLR 63.1 40.1 43% 30.1 0.0
07 11:35 SW 16 G 22 10.00 Fair CLR 61.3 38.8 44% 30.1 0.0
07 11:15 W 13 10.00 Fair CLR 58.5 39 49% 30.11 0.0
07 10:55 SW 17 G 21 10.00 Fair CLR 56.5 39 52% 30.12 0.0
07 10:35 SW 14 G 20 10.00 Fair CLR 54.9 38.8 55% 30.12 0.0
07 10:15 SW 14 10.00 Fair CLR 53.2 38.8 58% 30.13 0.0
07 09:55 SW 10 10.00 Fair CLR 50.9 38.8 64% 30.13 0.0
07 09:35 SW 10 10.00 Fair CLR 48.9 39.2 69% 45 30.14 0.0
07 09:15 SW 10 10.00 Fair CLR 46.2 38.7 75% 42 30.15 0.0
07 08:55 SW 10 10.00 Fair CLR 44.1 38.3 80% 39 30.16 0.0
07 08:35 SW 12 10.00 Fair CLR 42.6 38.7 86% 37 30.16 0.0
07 08:15 SW 8 10.00 Fair CLR 41.2 38.7 91% 37 30.15 0.0
07 07:55 SW 8 10.00 Fair CLR 40.1 38.3 93% 35 30.15 0.0
07 07:35 SW 8 10.00 Fair CLR 39.2 37.4 93% 34 30.14 0.0
07 07:15 SW 8 10.00 Fair CLR 37.9 36.5 95% 33 30.14 0.0
07 06:55 SW 6 5.00 Fog/Mist CLR 36.7 34.9 46.9 36.5 93% 33 30.13 0.0
07 06:35 SW 5 7.00 Fair CLR 37.2 35.8 95% 34 30.14 0.0
07 06:15 SW 6 7.00 Fair CLR 37 35.2 93% 33 30.14 0.0
07 05:55 SW 6 10.00 Fair CLR 39 36.7 91% 35 30.15 0.0
07 05:35 W 7 10.00 Fair CLR 41 38.7 91% 37 30.15 0.0
07 05:15 W 7 10.00 Partly Cloudy SCT040 41.2 38.7 91% 37 30.16 0.0
07 04:55 W 6 10.00 Mostly Cloudy BKN040 42.8 39.7 89% 40 30.16 0.0
07 04:35 W 3 10.00 Overcast OVC040 44.4 41 88% 30.16 0.0
07 04:15 SW 5 10.00 Overcast OVC042 45.5 41.9 87% 44 30.16 0.0
07 03:55 W 5 10.00 Overcast OVC044 45.9 42.4 88% 44 30.16 0.0
07 03:35 W 5 10.00 Overcast OVC044 46 42.8 89% 44 30.17 0.0
07 03:15 W 5 10.00 Overcast OVC046 46 42.8 89% 44 30.17 0.0
07 02:55 W 5 10.00 Overcast OVC046 45.9 42.8 89% 44 30.18 0.0
07 02:35 NW 6 10.00 Overcast OVC044 46 42.8 89% 44 30.19 0.0
07 02:15 NW 6 10.00 Overcast OVC046 46 43 89% 44 30.19 0.0
07 01:55 W 5 10.00 Overcast OVC050 46 42.8 89% 44 30.19 0.0
07 01:35 W 6 10.00 Overcast BKN060 OVC080 46 42.4 87% 44 30.19 0.0
07 01:15 N 3 10.00 Light Rain SCT050 OVC060 46.4 41.9 84% 30.17 0.0
07 00:55 NW 8 10.00 Rain OVC050 46.9 41 55.4 46.9 80% 44 30.19 0.0
07 00:35 NW 6 10.00 Light Rain OVC050 48.2 39.2 71% 46 30.17 0.0
07 00:15 NW 6 10.00 Overcast SCT050 BKN070 OVC100 48.7 37.6 66% 47 30.18 0.0
06 23:55 NW 3 10.00 Light Drizzle SCT070 BKN085 BKN100 49.8 36.9 61% 30.17 0.0
06 23:35 Calm 10.00 Overcast SCT050 BKN080 OVC095 50 35.8 58% 30.16 0.0
06 23:15 Calm 10.00 Overcast OVC050 50.2 35.8 58% 30.18 0.0
06 22:55 NW 5 10.00 Overcast OVC050 50.4 36 58% 30.2 0.0
06 22:35 NW 5 10.00 Overcast OVC050 50.9 35.6 56% 30.19 0.0
06 22:15 NW 6 10.00 Overcast OVC050 50.9 35.6 56% 30.17 0.0
06 21:55 N 6 10.00 Overcast OVC050 51.1 35.6 56% 30.15 0.0
06 21:35 N 7 10.00 Overcast OVC050 51.8 35.2 53% 30.14 0.0
06 21:15 N 6 10.00 Overcast OVC050 52 35.8 54% 30.11 0.0
06 20:55 N 5 10.00 Overcast OVC050 52 35.6 54% 30.12 0.0
06 20:35 N 7 10.00 Overcast OVC050 52.7 35.6 52% 30.11 0.0
06 20:15 N 5 10.00 Mostly Cloudy BKN050 52.7 35.8 53% 30.11 0.0
06 19:55 NE 6 10.00 Partly Cloudy SCT050 53.4 35.4 51% 30.1 0.0
06 19:35 NE 6 10.00 Mostly Cloudy BKN060 54.7 35.6 49% 30.1 0.0
06 19:15 NE 10 10.00 Overcast OVC060 53.8 35.6 50% 30.1 0.0
06 18:55 N 8 10.00 Overcast SCT043 OVC060 53.8 35.6 55.6 50.2 50% 30.1 0.0
06 18:35 N 13 10.00 Overcast BKN045 OVC050 54.5 35.6 49% 30.1 0.0
06 18:15 N 7 10.00 Overcast BKN044 OVC050 54.3 34.9 48% 30.1 0.0
06 17:55 N 8 10.00 Overcast SCT046 OVC050 54.9 34.9 47% 30.1 0.0
06 17:35 N 8 10.00 Overcast OVC050 55.2 35.8 48% 30.09 0.0
06 17:15 N 6 10.00 Overcast OVC050 54.7 35.4 48% 30.09 0.0
06 16:55 NE 9 10.00 Overcast OVC050 55.2 35.2 47% 30.09 0.0
06 16:35 N 8 10.00 Overcast BKN050 OVC055 54.7 34.5 47% 30.09 0.0
06 16:15 N 6 10.00 Overcast OVC050 54.1 32.9 45% 30.1 0.0
06 15:55 NE 8 10.00 Overcast OVC050 55.6 34 44% 30.1 0.0
06 15:35 NE 8 10.00 Overcast OVC050 54.5 33.6 45% 30.1 0.0
06 15:15 NE 6 10.00 Overcast OVC050 54 33.4 46% 30.11 0.0
06 14:55 NE 9 10.00 Overcast OVC050 53.4 33.8 48% 30.11 0.0
06 14:35 NE 8 10.00 Overcast OVC050 52.2 34 50% 30.12 0.0
06 14:15 NE 8 10.00 Overcast SCT037 OVC050 51.1 34.2 53% 30.13 0.0
06 13:55 NE 10 G 17 10.00 Overcast OVC050 50.4 34.2 54% 30.13 0.0
06 13:35 NE 13 G 16 10.00 Overcast SCT039 OVC050 51.3 34.7 53% 30.13 0.0
06 13:15 NE 10 10.00 Overcast BKN039 OVC050 50.4 34.2 54% 30.13 0.0
06 12:55 NE 13 G 16 10.00 Overcast BKN037 OVC050 50.5 34.3 51.6 43 54% 30.14 0.0
06 12:35 NE 10 10.00 Overcast BKN037 OVC050 50.5 34 53% 30.14 0.0
06 12:15 NE 14 10.00 Overcast SCT035 OVC050 50.9 33.8 52% 30.13 0.0
06 11:55 NE 16 10.00 Overcast BKN035 OVC050 50.9 34.2 53% 30.12 0.0
06 11:35 E 13 G 18 10.00 Overcast SCT033 OVC050 51.3 34 52% 30.11 0.0
06 11:15 E 16 10.00 Overcast SCT031 OVC050 50.5 34.7 55% 30.1 0.0
06 10:55 NE 16 10.00 Overcast SCT027 OVC050 49.1 34.9 58% 44 30.1 0.0
06 10:35 E 14 G 21 10.00 Overcast SCT025 BKN050 OVC065 49.3 35.1 58% 45 30.11 0.0
06 10:15 NE 16 G 20 10.00 Overcast SCT025 SCT050 OVC065 48.7 35.6 61% 43 30.09 0.0
06 09:55 E 16 G 21 10.00 Overcast OVC050 46.9 35.8 65% 41 30.09 0.0
06 09:35 NE 9 10.00 Overcast OVC050 45.5 36.5 71% 41 30.12 0.0
06 09:15 E 12 10.00 Overcast OVC050 44.8 36.5 73% 40 30.11 0.0
06 08:55 E 10 10.00 Overcast OVC050 44.1 36.5 75% 39 30.11 0.0
06 08:35 E 9 10.00 Overcast OVC050 43.7 36.5 76% 39 30.12 0.0
06 08:15 NE 10 10.00 Overcast OVC050 43.7 36.5 76% 39 30.11 0.0
06 07:55 E 10 10.00 Overcast OVC050 43.3 36.5 77% 38 30.09 0.0
06 07:35 NE 10 10.00 Overcast OVC050 43 36.3 77% 38 30.09 0.0
06 07:15 NE 10 10.00 Overcast OVC050 43 36.3 77% 38 30.07 0.0
06 06:55 NE 9 10.00 Overcast SCT015 OVC050 43 36.5 47.3 43 78% 38 30.08 0.0
06 06:35 NE 9 10.00 Overcast SCT015 OVC050 43 36.7 79% 38 30.07 0.0
06 06:15 NE 9 10.00 Overcast SCT015 OVC050 43.2 36.5 77% 38 30.08 0.0
06 05:55 NE 10 10.00 Overcast OVC050 43.2 36.5 77% 38 30.07 0.0
06 05:35 NE 12 10.00 Overcast OVC050 43.2 36.5 77% 38 30.03 0.0
06 05:15 NE 14 G 20 10.00 Overcast SCT012 OVC050 43.2 36.7 78% 37 30.03 0.0
06 04:55 NE 14 10.00 Overcast BKN012 OVC050 43.2 37.6 81% 37 30.03 0.0
06 04:35 NE 16 10.00 Overcast OVC012 43.7 38.1 81% 37 30.01 0.0
06 04:15 N 13 10.00 Overcast OVC012 44.1 38.3 80% 38 30.05 0.0
06 03:55 N 15 G 23 10.00 Overcast SCT014 SCT024 OVC045 44.6 37.9 78% 38 30.02 0.0
06 03:35 N 17 G 21 10.00 Overcast SCT021 BKN028 OVC045 44.8 37.6 76% 38 30.02 0.0
06 03:15 N 16 10.00 Overcast SCT023 SCT028 OVC045 46.2 37.6 72% 40 30.02 0.0
06 02:55 NE 10 10.00 Overcast BKN045 OVC050 46.4 36.9 70% 42 30.02 0.0
06 02:35 NE 9 10.00 Overcast BKN043 OVC050 47.3 36.5 66% 43 30.02 0.0
06 02:15 N 7 10.00 Overcast OVC041 47.3 36.1 65% 44 30.03 0.0
06 01:55 N 6 10.00 Overcast OVC041 46.6 36.5 68% 44 30.03 0.0
06 01:35 N 3 10.00 Overcast OVC041 46.4 36.3 68% 30.03 0.0
06 01:15 Calm 10.00 Overcast OVC039 46.6 35.8 66% 30.01 0.0
06 00:55 E 8 10.00 Overcast OVC039 46.9 35.2 51.4 46.9 64% 44 29.98 0.0
06 00:35 E 10 10.00 Overcast OVC041 46.9 35.1 63% 43 29.96 0.0
06 00:15 E 12 10.00 Overcast OVC041 47.3 34.7 62% 43 29.98 0.0
05 23:55 E 14 10.00 Overcast OVC041 47.5 34.7 61% 42 29.97 0.0
05 23:35 E 12 10.00 Overcast OVC041 47.5 35.2 63% 43 29.96 0.0
05 23:15 E 12 10.00 Light Rain BKN041 OVC047 47.7 35.4 63% 43 29.97 0.0
05 22:55 E 12 10.00 Light Rain BKN039 OVC047 48.2 34.7 60% 44 29.96 0.0
05 22:35 E 8 10.00 Overcast OVC039 48.7 35.2 60% 46 29.96 0.0
05 22:15 NE 10 10.00 Overcast OVC037 48.7 35.4 60% 45 29.96 0.0
05 21:55 NE 13 10.00 Overcast OVC037 48.7 35.8 61% 44 29.94 0.0
05 21:35 NE 14 10.00 Overcast OVC037 48.9 36.9 63% 44 29.94 0.0
05 21:15 NE 14 10.00 Overcast OVC037 49.1 36.7 62% 44 29.93 0.0
05 20:55 NE 14 10.00 Overcast OVC037 49.3 36.9 62% 45 29.94 0.0
05 20:35 NE 13 10.00 Overcast OVC035 49.8 36.9 61% 45 29.93 0.0
05 20:15 NE 13 10.00 Overcast OVC031 50 37.4 62% 46 29.93 0.0
05 19:55 NE 14 G 17 10.00 Overcast OVC033 50.4 37.4 61% 29.93 0.0
05 19:35 NE 14 G 17 10.00 Overcast OVC035 50.9 36.7 58% 29.92 0.0
05 19:15 NE 12 G 18 10.00 Overcast OVC035 51.1 36.9 58% 29.92 0.0
05 18:55 NE 14 10.00 Overcast OVC033 51.4 37.4 56.5 51.4 59% 29.92 0.0
05 18:35 NE 13 G 16 10.00 Overcast OVC033 52 37.4 58% 29.92 0.0
05 18:15 NE 14 10.00 Overcast OVC037 52.7 37.2 56% 29.89 0.0
05 17:55 NE 16 10.00 Overcast OVC035 52.7 37 55% 29.89 0.0
05 17:35 NE 15 G 20 10.00 Overcast OVC037 52.9 36.9 55% 29.9 0.0
05 17:15 NE 14 G 20 10.00 Overcast OVC037 53.2 36.3 53% 29.91 0.0
05 16:55 NE 13 10.00 Overcast OVC037 54 36.5 52% 29.9 0.0
05 16:35 NE 13 10.00 Overcast OVC035 54 36.1 51% 29.89 0.0
05 16:15 NE 16 G 22 10.00 Overcast OVC035 54.7 36.5 50% 29.89 0.0
05 15:55 NE 17 10.00 Overcast OVC033 54.1 35.6 50% 29.89 0.0
05 15:35 NE 20 10.00 Overcast OVC033 54.5 36 50% 29.89 0.0
05 15:15 NE 21 G 26 10.00 Overcast and Breezy OVC035 54.5 36 50% 29.9 0.0
05 14:55 NE 22 G 26 10.00 Overcast and Breezy OVC035 54.5 36 50% 29.89 0.0
05 14:35 NE 21 G 25 10.00 Overcast and Breezy OVC037 56.1 36.1 47% 29.89 0.0
05 14:15 NE 20 G 28 10.00 Overcast OVC037 55.4 35.4 47% 29.89 0.0
05 13:55 NE 20 G 24 10.00 Overcast OVC037 55.8 34.9 46% 29.89 0.0
05 13:35 NE 21 G 26 10.00 Overcast and Breezy OVC037 55.6 34.5 45% 29.89 0.0
05 13:15 N 25 G 29 10.00 Overcast and Breezy OVC037 56.1 34.2 44% 29.89 0.0
05 12:55 NE 23 G 28 10.00 Overcast and Breezy OVC037 56.1 34 56.3 54 43% 29.88 0.0
05 12:35 NE 22 G 29 10.00 Overcast and Breezy OVC037 55 33.6 44% 29.89 0.0
05 12:15 N 17 G 26 10.00 Overcast OVC035 55 33.8 45% 29.89 0.0
05 11:55 N 22 G 26 10.00 Overcast and Breezy OVC035 54.7 34.2 46% 29.88 0.0
05 11:35 N 18 G 24 10.00 Overcast OVC031 54.5 35.1 48% 29.88 0.0
05 11:15 NE 20 G 28 10.00 Overcast OVC031 54.5 34.9 48% 29.87 0.0
05 10:55 NE 20 G 29 10.00 Overcast OVC029 54 35.2 49% 29.86 0.0
05 10:35 NE 20 G 30 10.00 Overcast OVC029 54.1 36 50% 29.85 0.0
05 09:55 NE 20 G 25 10.00 Overcast OVC029 54.1 34.2 47% 29.83 0.0
05 09:35 NE 23 G 31 10.00 Overcast and Breezy OVC029 54.1 33.8 46% 29.82 0.0
05 09:15 NE 16 G 25 10.00 Overcast OVC029 54.1 33.8 46% 29.81 0.0
05 08:55 NE 18 G 26 10.00 Overcast OVC027 54.5 33.4 45% 29.8 0.0
05 08:35 NE 23 G 32 10.00 Overcast and Breezy OVC027 54.5 33.8 46% 29.78 0.0
05 08:15 NE 22 G 26 10.00 Overcast and Breezy OVC029 54.7 35.6 49% 29.78 0.0
05 07:55 NE 25 G 36 10.00 Overcast and Breezy OVC029 55 35.2 47% 29.77 0.0
05 07:35 NE 22 G 33 10.00 Overcast and Breezy OVC027 55 36.1 49% 29.74 0.0
05 07:15 N 28 G 36 10.00 Overcast and Windy OVC027 55.4 37.4 51% 29.73 0.0
05 06:55 NE 23 G 36 10.00 Overcast and Breezy OVC027 56.3 40.3 65.8 56.3 55% 29.72 0.0
05 06:35 N 31 G 36 10.00 Overcast and Windy OVC025 57.2 41.7 56% 29.71 0.0
05 06:15 N 25 G 32 10.00 Overcast and Breezy OVC023 57.7 42.8 58% 29.7 0.0
05 05:55 N 25 G 29 10.00 Overcast and Breezy OVC021 58.6 46 63% 29.69 0.0
05 05:35 N 18 G 22 10.00 Overcast OVC019 59.7 48.7 67% 29.67 0.0
05 05:15 N 22 G 29 10.00 Overcast and Breezy OVC019 60.4 49.6 68% 29.64 0.0
05 04:55 N 22 G 31 10.00 Overcast and Breezy OVC015 61.3 50.5 68% 29.61 0.0
05 04:35 NE 16 G 25 10.00 Overcast OVC013 63.7 58.3 83% 29.6 0.0
05 04:15 NE 16 G 21 10.00 Partly Cloudy SCT013 62.2 58.1 86% 29.59 0.0
05 03:55 NE 16 G 20 10.00 Fair CLR 61.7 57.2 85% 29.57 0.0
05 03:35 N 13 10.00 Fair CLR 60.6 56.1 85% 29.57 0.0
05 03:15 N 8 10.00 Fair CLR 57.9 50.2 76% 29.57 0.0
05 02:55 NW 8 10.00 Fair CLR 58.8 46.9 65% 29.56 0.0
05 02:35 NW 12 10.00 Fair CLR 57.6 37.4 47% 29.57 0.0
05 02:15 SW 9 10.00 Fair CLR 60.1 35.4 40% 29.55 0.0
05 01:55 SW 6 10.00 Fair CLR 61.2 35.2 38% 29.55 0.0
05 01:35 W 5 10.00 Fair CLR 61.5 35.4 38% 29.56 0.0
05 01:15 SE 3 10.00 Fair CLR 63.7 35.6 35% 29.57 0.0
05 00:55 SW 8 10.00 Fair CLR 66.2 34.2 85.6 66.2 31% 29.55 0.0
05 00:35 SW 10 10.00 Fair CLR 68.5 34.3 28% 29.55 0.0
05 00:15 S 10 10.00 Fair CLR 69.3 34.9 28% 29.55 0.0
04 23:55 S 8 10.00 Fair CLR 70.5 35.8 28% 29.56 0.0
04 23:35 SW 5 10.00 Fair CLR 68.4 36.1 31% 29.56 0.0
04 23:15 SW 6 10.00 Fair CLR 70 36.5 29% 29.56 0.0
04 22:55 S 8 10.00 Fair CLR 69.6 37.4 31% 29.56 0.0
04 22:35 S 7 10.00 Fair CLR 69.8 37.6 31% 29.56 0.0
04 22:15 SE 3 10.00 Fair CLR 69.6 41.2 36% 29.55 0.0
04 21:55 Calm 10.00 Fair CLR 73.4 40.5 31% 29.56 0.0
04 21:35 Calm 10.00 Fair CLR 76.6 39.4 26% 77 29.55 0.0
04 21:15 Calm 10.00 Fair CLR 76.1 39.2 27% 77 29.55 0.0
04 20:55 N 3 10.00 Fair CLR 75 40.5 29% 77 29.55 0.0
04 20:35 Calm 10.00 Fair CLR 81.1 35.8 20% 79 29.55 0.0
04 20:15 Calm 10.00 Fair CLR 80.1 39.9 24% 79 29.55 0.0
04 19:55 S 5 10.00 Fair CLR 81.7 41 24% 80 29.56 0.0
04 19:35 Calm 10.00 Fair CLR 83.3 40.3 22% 81 29.56 0.0
04 19:15 E 9 10.00 Fair CLR 84.4 40.5 21% 82 29.56 0.0
04 18:55 E 7 10.00 Fair CLR 85.8 38.7 89.1 80.6 19% 83 29.56 0.0
04 18:35 E 3 10.00 Fair CLR 87.3 37 17% 84 29.56 0.0
04 18:15 Calm 10.00 Fair CLR 87.8 34.9 15% 84 29.57 0.0
04 17:55 Calm 10.00 Fair CLR 88.2 34.9 15% 84 29.57 0.0
04 17:35 Calm 10.00 Fair CLR 87.8 34.7 15% 84 29.57 0.0
04 17:15 SW 5 10.00 Fair CLR 88.7 34.9 15% 85 29.59 0.0
04 16:55 W 3 10.00 Fair CLR 88.7 35.6 15% 85 29.59 0.0
04 16:35 Calm 10.00 Fair CLR 88.2 36.9 16% 84 29.6 0.0
Date Time (cdt) Wind (mph) Vis. (mi.) Weather Sky Cond. Air Dwpt Max. Min. Relative Humidity Wind Chill (°F) Heat Index (°F) altimeter (in) sea level (mb) 1 hr 3 hr 6 hr
6 hour
Temperature (ºF) Pressure Precipitation (in)